Weather observations for the past three days for
Bend Airport AWOS
Metric (Imperial)
Date Time (pdt) Wind (kph) Vis. (km) Weather Sky Cond. Temperature (ºC) Relative Humidity Wind Chill (°C) Heat Index (°C) Pressure Precipitation (cm)
Air Dwpt 6 hour altimeter (cm) sea level (mb) 1 hr 3 hr 6 hr
Max. Min.
02 10:15 S 26 16.09 Mostly Cloudy BKN046 BKN055 BKN100 15 4 48% 75.74 0.0
02 09:55 S 24 G 37 16.09 Partly Cloudy SCT047 SCT100 15 4 48% 75.74 0.0
02 09:35 SW 31 16.09 Fair CLR 16 4 45% 75.74 0.0
01 17:50 W 13 G 22 16.09 A Few Clouds FEW110 21 6 38% 75.69 0.0
01 17:35 NW 20 16.09 Partly Cloudy SCT110 22 6 36% 75.69 0.0
01 17:15 NW 19 G 30 16.09 Fair CLR 22 5 33% 75.69 0.0
01 16:55 NW 19 G 30 0.00 Fair CLR 24 4 27% 25 75.67 0.0
01 16:35 NW 19 G 37 16.09 Fair CLR 25 3 24% 25 75.64 0.0
01 16:15 N 22 G 31 16.09 Partly Cloudy FEW100 SCT120 25 3 24% 25 75.64 0.0
01 15:55 NW 26 G 35 16.09 Mostly Cloudy BKN100 BKN120 24 2 24% 25 75.64 0.0
01 15:35 NW 26 16.09 Mostly Cloudy BKN100 24 2 24% 25 75.64 0.0
01 11:20 Calm 16.09 Fair CLR 24 4 27% 25 75.79 0.0
01 11:15 Calm 14.48 Fair CLR 24 4 27% 25 75.79 0.0
01 10:55 Calm 16.09 Fair CLR 23 4 29% 75.79 0.0
01 10:35 Calm 12.87 Fair CLR 22 5 33% 75.82 0.0
01 10:15 W 9 16.09 NULL NULL 21 5 35% 75.82 0.0
01 09:35 Calm 16.09 NULL NULL 20 6 40% 75.79 0.0
01 08:05 SW 13 16.09 Fair CLR 15 5 51% 75.84 0.0
01 07:50 SW 13 16.09 Fair CLR 14 5 55% 75.82 0.0
01 07:30 SW 13 16.09 Fair CLR 13 4 55% 75.82 0.0
01 07:15 SW 15 16.09 Fair CLR 13 4 55% 75.79 0.0
01 06:50 SW 13 16.09 Fair CLR 13 4 55% 75.79 0.0
01 06:35 SW 13 0.00 Partly Cloudy FEW019 SCT025 SCT050 13 4 55% 75.77 0.0
01 06:10 SW 11 16.09 Overcast OVC050 13 4 55% 75.77 0.0
01 05:50 SW 11 16.09 Overcast OVC050 13 4 55% 75.77 0.0
01 05:35 SW 7 16.09 Overcast OVC048 14 4 51% 75.77 0.0
01 05:15 SW 13 16.09 Overcast OVC050 13 4 55% 75.79 0.0
01 04:50 SW 13 16.09 Overcast BKN048 OVC085 13 4 55% 75.79 0.0
01 04:30 SW 11 16.09 Overcast OVC085 14 3 48% 75.79 0.0
01 04:10 SW 9 16.09 Overcast FEW048 OVC085 13 3 51% 75.79 0.0
01 03:50 SW 9 16.09 Overcast OVC085 14 3 48% 75.79 0.0
01 03:35 SW 7 16.09 Overcast OVC080 14 3 48% 75.79 0.0
01 03:10 SW 9 16.09 Mostly Cloudy BKN080 14 3 48% 75.79 0.0
01 02:50 SW 6 16.09 Partly Cloudy FEW080 SCT120 14 3 48% 75.79 0.0
01 02:30 W 6 16.09 Partly Cloudy SCT120 14 3 48% 75.82 0.0
01 02:10 SW 9 16.09 A Few Clouds FEW110 13 3 51% 75.82 0.0
01 01:50 Calm 16.09 Fair CLR 14 3 48% 75.82 0.0
01 01:35 Calm 16.09 Partly Cloudy SCT080 14 3 48% 75.82 0.0
01 01:10 Calm 16.09 Overcast OVC085 15 3 45% 75.82 0.0
01 00:55 W 9 16.09 Mostly Cloudy FEW030 FEW035 BKN085 17 3 39% 75.82 0.0
01 00:35 W 7 16.09 Mostly Cloudy BKN031 BKN036 BKN043 16 3 42% 75.82 0.0
01 00:10 Calm 16.09 Overcast OVC030 17 3 39% 75.84 0.0
31 23:55 W 9 16.09 Overcast OVC027 17 3 39% 75.82 0.0
31 23:35 W 9 16.09 Overcast OVC026 17 3 39% 75.82 0.0
31 23:10 W 11 16.09 Overcast OVC028 18 3 37% 75.84 0.0
31 22:55 W 9 16.09 Overcast BKN029 OVC038 18 3 37% 75.84 0.0
31 22:35 NW 11 16.09 Overcast FEW028 OVC038 19 2 32% 75.84 0.0
31 22:10 NW 13 16.09 Overcast OVC037 20 0 26% 75.84 0.0
31 21:55 NW 13 16.09 Overcast BKN036 OVC044 20 0 26% 75.84 0.0
31 21:35 NW 13 16.09 Partly Cloudy FEW037 SCT044 21 0 25% 75.84 0.0
31 21:15 N 15 G 24 16.09 Fair CLR 21 1 27% 75.82 0.0
31 20:50 NW 17 16.09 Fair CLR 22 1 25% 75.79 0.0
31 20:35 NW 20 16.09 Fair CLR 23 2 25% 75.77 0.0
31 20:10 NW 17 16.09 Fair CLR 23 3 27% 75.77 0.0
31 19:55 NW 17 16.09 Fair CLR 24 1 22% 25 75.74 0.0
31 19:35 N 20 G 30 16.09 Fair CLR 25 -1 18% 25 75.72 0.0
31 19:10 N 19 G 35 16.09 Fair CLR 26 -2 16% 25 75.69 0.0
31 18:55 N 24 G 37 16.09 Fair CLR 27 -2 15% 26 75.69 0.0
31 18:35 NW 30 16.09 Fair CLR 27 -2 15% 26 75.67 0.0
31 18:15 NW 26 16.09 Fair CLR 28 -2 14% 27 75.67 0.0
31 17:55 NW 26 16.09 Fair CLR 29 -2 13% 27 75.67 0.0
31 17:35 N 24 16.09 Fair CLR 29 -3 12% 27 75.67 0.0
31 17:15 N 20 16.09 Fair CLR 30 -3 11% 28 75.69 0.0
31 16:30 N 19 G 28 16.09 Fair CLR 31 -3 11% 29 75.72 0.0
31 16:15 N 15 16.09 Fair CLR 31 -4 10% 29 75.72 0.0
31 15:55 N 11 G 22 16.09 Fair CLR 30 -4 11% 28 75.72 0.0
31 15:30 N 17 16.09 Fair CLR 30 -3 11% 28 75.74 0.0
31 15:15 N 15 16.09 Fair CLR 30 -3 11% 28 75.77 0.0
31 14:55 Vrbl 9 16.09 Fair CLR 29 -4 11% 27 75.79 0.0
31 14:30 Vrbl 9 G 20 16.09 Fair CLR 29 -4 11% 27 75.82 0.0
31 14:15 NW 17 16.09 Fair CLR 28 -4 12% 27 75.84 0.0
31 13:55 NW 13 16.09 Fair CLR 28 -4 12% 27 75.84 0.0
31 13:35 N 15 16.09 Fair CLR 27 -3 14% 26 75.87 0.0
31 13:15 N 13 16.09 Fair CLR 27 -3 14% 26 75.9 0.0
31 12:55 E 6 16.09 Fair CLR 26 -6 12% 25 75.92 0.0
31 12:30 N 7 16.09 Fair CLR 26 -6 12% 25 75.95 0.0
31 12:15 Vrbl 6 16.09 Fair CLR 25 -5 13% 25 75.97 0.0
31 11:55 Calm 16.09 Fair CLR 24 -4 15% 24 76 0.0
31 11:30 Vrbl 9 16.09 Fair CLR 24 -3 16% 24 76.02 0.0
31 11:15 Vrbl 6 16.09 Fair CLR 23 -2 19% 76.05 0.0
31 10:55 Calm 16.09 Fair CLR 22 -1 22% 76.05 0.0
31 10:35 Calm 16.09 Fair CLR 21 -1 23% 76.07 0.0
31 10:10 Calm 16.09 Fair CLR 20 0 26% 76.1 0.0
31 09:55 Calm 14.48 Fair CLR 19 1 30% 76.1 0.0
31 09:30 Calm 16.09 Fair CLR 18 0 30% 76.12 0.0
31 09:15 Calm 16.09 Fair CLR 17 0 32% 76.12 0.0
31 08:55 Calm 16.09 Fair CLR 16 0 34% 76.15 0.0
31 08:30 Calm 16.09 Fair CLR 14 -1 36% 76.15 0.0
31 07:55 S 7 16.09 Fair CLR 11 -1 44% 76.15 0.0
31 07:35 S 7 16.09 Fair CLR 10 -1 47% 9 76.15 0.0
31 07:15 S 9 14.48 Fair CLR 9 -1 50% 8 76.15 0.0
31 06:55 S 7 16.09 Fair CLR 8 -2 50% 7 76.15 0.0
31 06:35 S 9 16.09 Fair CLR 8 -2 50% 7 76.15 0.0
31 06:15 S 6 16.09 Fair CLR 7 -2 53% 76.15 0.0
31 05:55 S 9 16.09 Fair CLR 8 -1 53% 7 76.15 0.0
31 05:30 S 11 16.09 Fair CLR 8 -1 53% 6 76.15 0.0
31 05:15 S 13 16.09 Fair CLR 8 -1 53% 6 76.15 0.0
31 04:55 SW 11 16.09 Fair CLR 8 -1 53% 6 76.17 0.0
31 04:35 S 9 16.09 Fair CLR 8 -1 53% 7 76.17 0.0
31 04:15 S 13 16.09 Fair CLR 8 -2 50% 6 76.17 0.0
31 03:55 SW 9 16.09 Fair CLR 9 -2 46% 8 76.17 0.0
31 03:30 SW 13 16.09 Fair CLR 9 -2 46% 7 76.2 0.0
31 03:15 SW 11 16.09 Fair CLR 9 -2 46% 8 76.2 0.0
31 02:55 SW 11 16.09 Fair CLR 9 -2 46% 8 76.2 0.0
31 02:30 SW 9 16.09 Fair CLR 10 -2 43% 9 76.2 0.0
31 02:15 SW 6 16.09 Fair CLR 10 -2 43% 76.2 0.0
31 01:55 SW 9 16.09 Fair CLR 10 -2 43% 9 76.23 0.0
31 01:30 SW 11 16.09 Fair CLR 10 -2 43% 9 76.23 0.0
31 01:15 SW 9 16.09 Fair CLR 10 -2 43% 9 76.23 0.0
31 00:50 SW 7 16.09 Fair CLR 11 -2 41% 76.23 0.0
31 00:30 SW 6 16.09 A Few Clouds FEW003 11 -2 41% 76.25 0.0
31 00:15 SW 7 16.09 Mostly Cloudy BKN003 11 -2 41% 76.25 0.0
30 23:55 Calm 16.09 Mostly Cloudy BKN003 13 -2 36% 76.25 0.0
30 23:30 W 6 16.09 A Few Clouds FEW003 15 -1 34% 76.25 0.0
30 23:10 W 11 16.09 A Few Clouds FEW026 14 -2 33% 76.25 0.0
30 22:55 W 7 16.09 Mostly Cloudy BKN026 13 -2 36% 76.28 0.0
30 22:35 Calm 16.09 Mostly Cloudy BKN024 15 -2 31% 76.28 0.0
30 22:10 Calm 16.09 Partly Cloudy SCT022 14 -2 33% 76.28 0.0
30 21:55 Calm 16.09 A Few Clouds FEW020 15 -2 31% 76.28 0.0
30 21:35 Calm 16.09 Fair CLR 16 -3 27% 76.28 0.0
30 21:10 NW 6 16.09 Fair CLR 17 -3 25% 76.25 0.0
30 20:55 Calm 16.09 Fair CLR 18 -5 21% 76.25 0.0
30 20:35 N 6 16.09 Fair CLR 19 -5 19% 76.23 0.0
30 20:10 N 9 16.09 Fair CLR 20 -7 16% 76.23 0.0
30 19:55 Calm 16.09 Fair CLR 21 -8 13% 76.2 0.0
30 19:35 N 7 16.09 Fair CLR 23 -8 12% 76.2 0.0
30 19:10 N 11 16.09 Fair CLR 24 -7 12% 24 76.2 0.0
30 18:55 N 9 16.09 Fair CLR 24 -5 14% 24 76.2 0.0
30 18:35 NE 13 16.09 Fair CLR 25 -4 14% 25 76.2 0.0
30 18:10 N 11 16.09 Fair CLR 25 -5 13% 25 76.2 0.0
30 17:55 Vrbl 9 16.09 Fair CLR 26 -5 12% 25 76.2 0.0
30 17:35 N 13 16.09 Fair CLR 26 -5 12% 25 76.23 0.0
30 17:15 N 6 16.09 Fair CLR 26 -6 12% 25 76.23 0.0
30 16:50 N 11 G 20 16.09 Fair CLR 26 -6 12% 25 76.25 0.0
30 16:30 N 15 16.09 Fair CLR 26 -6 12% 25 76.25 0.0
30 16:10 Vrbl 9 16.09 Fair CLR 25 -6 12% 25 76.25 0.0
30 15:50 Vrbl 7 16.09 Fair CLR 26 -7 11% 25 76.28 0.0
30 15:35 NW 7 14.48 Fair CLR 26 -8 10% 25 76.3 0.0
30 15:15 Calm 16.09 Fair CLR 25 -8 11% 24 76.3 0.0
30 14:50 Calm 16.09 Fair CLR 25 -8 11% 24 76.33 0.0
30 14:10 Vrbl 6 16.09 Fair CLR 24 -6 13% 24 76.38 0.0
30 13:55 N 11 16.09 Fair CLR 23 -6 14% 76.38 0.0
30 13:30 Calm 16.09 Fair CLR 22 -4 17% 76.4 0.0
30 13:10 Vrbl 9 16.09 Fair CLR 22 -3 19% 76.4 0.0
30 12:50 Calm 16.09 Fair CLR 21 -3 20% 76.4 0.0
30 12:35 Calm 16.09 Fair CLR 21 -1 23% 0 0.0
30 12:15 NW 6 16.09 Fair CLR 19 0 28% 76.43 0.0
30 11:50 Calm 16.09 Fair CLR 18 1 32% 76.45 0.0
30 11:35 Vrbl 7 16.09 Fair CLR 18 0 30% 76.48 0.0
30 11:10 Vrbl 7 16.09 Fair CLR 17 1 34% 76.48 0.0
30 10:50 Vrbl 6 16.09 Fair CLR 17 1 34% 76.5 0.0
30 10:35 Vrbl 7 16.09 Fair CLR 16 2 39% 76.5 0.0
Date Time (pdt) Wind (kph) Vis. (km) Weather Sky Cond. Air Dwpt Max. Min. Relative Humidity Wind Chill (°C) Heat Index (°C) altimeter (cm) sea level (mb) 1 hr 3 hr 6 hr
6 hour
Temperature (ºC) Pressure Precipitation (cm)